createdAt,value
2016-11-16T10:52:35.538Z,27520
2016-11-16T10:53:48.009Z,28928
2016-11-16T10:55:01.351Z,23872
2016-11-16T10:56:13.956Z,19488
2016-11-16T10:57:27.525Z,18080
2016-11-16T10:58:44.642Z,23648
2016-11-16T10:59:59.261Z,37920
2016-11-16T11:01:12.821Z,22272
2016-11-16T11:02:56.902Z,19008
2016-11-16T11:04:09.883Z,16068
2016-11-16T11:05:23.528Z,13868
2016-11-16T11:06:37.065Z,13512
2016-11-16T11:07:49.407Z,25920
2016-11-16T11:09:01.303Z,10432
2016-11-16T11:10:14.245Z,10188
2016-11-16T11:11:27.206Z,19808
2016-11-16T11:12:39.644Z,26304
2016-11-16T11:13:53.377Z,24928
2016-11-16T11:15:06.867Z,20768
2016-11-16T11:16:18.860Z,25536
2016-11-16T11:17:31.283Z,25216
2016-11-16T11:18:44.273Z,25920
2016-11-16T11:19:57.326Z,25696
2016-11-16T11:21:09.205Z,25504
2016-11-16T11:22:21.689Z,24864
2016-11-16T11:23:34.678Z,25536
2016-11-16T11:24:48.305Z,24352
2016-11-16T11:26:00.748Z,24928
2016-11-16T11:27:14.343Z,26016
2016-11-16T11:28:27.862Z,9188
2016-11-16T11:29:40.848Z,26048
2016-11-16T11:30:54.420Z,26016
2016-11-16T11:32:07.389Z,25152
2016-11-16T11:33:20.949Z,24384
2016-11-16T11:34:34.026Z,24032
2016-11-16T11:35:47.009Z,25536
2016-11-16T11:36:58.876Z,26080
2016-11-16T11:38:11.027Z,26848
2016-11-16T11:39:23.856Z,25984
2016-11-16T11:40:36.883Z,25984
2016-11-16T11:41:48.909Z,25472
2016-11-16T11:43:02.560Z,24864
2016-11-16T11:44:16.044Z,24992
2016-11-16T11:45:29.786Z,24544
2016-11-16T11:46:42.309Z,24768
2016-11-16T11:47:55.741Z,25568
2016-11-16T11:49:08.318Z,25568
2016-11-16T11:50:20.511Z,25024
2016-11-16T11:51:34.074Z,24928
2016-11-16T11:52:47.095Z,25024
2016-11-16T11:53:59.583Z,25440
2016-11-16T11:55:13.059Z,25760
2016-11-16T11:56:26.590Z,26144
2016-11-16T11:57:40.078Z,26656
2016-11-16T11:58:53.126Z,26240
2016-11-16T12:00:06.868Z,26048
2016-11-16T12:01:19.873Z,26432
2016-11-16T12:02:32.376Z,26208
2016-11-16T12:03:45.453Z,25664
2016-11-16T12:04:58.564Z,25408
2016-11-16T12:06:10.432Z,25632
2016-11-16T12:07:23.406Z,25792
2016-11-16T12:08:35.869Z,25888
2016-11-16T12:09:48.306Z,25888
2016-11-16T12:11:01.446Z,25760
2016-11-16T12:12:13.388Z,26784
2016-11-16T12:13:25.313Z,27392
2016-11-16T12:14:37.907Z,27168
2016-11-16T12:15:50.527Z,26976
2016-11-16T12:17:04.092Z,26432
2016-11-16T12:18:16.606Z,26112
2016-11-16T12:19:29.083Z,26496
2016-11-16T12:20:41.536Z,27072
2016-11-16T12:21:54.645Z,27232
2016-11-16T12:23:07.115Z,27392
2016-11-16T12:24:19.098Z,27488
2016-11-16T12:25:32.592Z,27008
2016-11-16T12:26:46.065Z,26592
2016-11-16T12:27:59.063Z,26752
2016-11-16T12:29:12.047Z,26112
2016-11-16T12:30:25.182Z,30112
2016-11-16T12:31:37.608Z,26624
2016-11-16T12:32:50.747Z,26464
2016-11-16T12:34:03.739Z,26048
2016-11-16T12:35:16.687Z,25856
2016-11-16T12:36:29.189Z,25920
2016-11-16T12:37:42.216Z,25856
2016-11-16T12:38:54.186Z,25536
2016-11-16T12:40:07.677Z,25408
2016-11-16T12:41:21.411Z,25856
2016-11-16T12:42:33.864Z,26240
2016-11-16T12:43:46.999Z,26240
2016-11-16T12:45:00.215Z,26784
2016-11-16T12:46:13.763Z,26496
2016-11-16T12:47:26.896Z,25760
2016-11-16T12:48:38.837Z,25184
2016-11-16T12:49:52.417Z,25216
2016-11-16T12:51:05.868Z,24608
2016-11-16T12:52:19.510Z,24096
2016-11-16T12:53:32.545Z,24000
2016-11-16T12:54:45.215Z,24320
2016-11-16T12:55:57.781Z,24224
2016-11-16T12:57:10.828Z,25152
2016-11-16T12:58:23.527Z,24992
2016-11-16T12:59:36.066Z,24640
2016-11-16T13:00:49.143Z,24544
2016-11-16T13:02:02.175Z,24832
2016-11-16T13:03:14.669Z,24928
2016-11-16T13:04:28.181Z,24992
2016-11-16T13:05:40.745Z,24544
2016-11-16T13:06:54.380Z,24288
2016-11-16T13:08:07.285Z,24832
2016-11-16T13:09:19.174Z,26208
2016-11-16T13:10:32.196Z,27872
2016-11-16T13:11:44.311Z,29728
2016-11-16T13:14:40.977Z,32384
2016-11-16T13:15:53.638Z,31872
2016-11-16T13:17:06.071Z,31968
2016-11-16T13:18:19.508Z,30944
2016-11-16T13:19:33.114Z,19072
2016-11-16T13:20:47.027Z,17952
2016-11-16T13:21:59.517Z,16904
2016-11-16T13:23:12.750Z,18112
2016-11-16T13:24:26.359Z,19168
2016-11-16T13:25:39.385Z,26784
2016-11-16T13:26:53.082Z,34592
2016-11-16T13:28:05.051Z,35008
2016-11-16T13:29:18.265Z,31584
2016-11-16T13:30:31.030Z,19200
2016-11-16T13:31:44.917Z,25984
2016-11-16T13:32:58.350Z,20928
2016-11-16T13:34:12.029Z,33984
2016-11-16T13:35:25.239Z,36288
2016-11-16T13:37:08.949Z,35936
2016-11-16T13:38:22.008Z,35232
2016-11-16T13:39:35.503Z,23744
2016-11-16T13:40:49.292Z,23936
2016-11-16T13:42:02.049Z,23008
2016-11-16T13:43:16.258Z,20608
2016-11-16T13:44:28.587Z,19072
2016-11-16T13:45:41.678Z,30016
2016-11-16T13:46:54.673Z,31520
2016-11-16T13:48:08.323Z,24672
2016-11-16T13:49:21.270Z,20000
2016-11-16T13:50:34.295Z,18496
2016-11-16T13:51:46.820Z,17104
2016-11-16T13:53:31.089Z,15972
2016-11-16T13:54:44.016Z,14688
2016-11-16T13:55:56.979Z,13944
2016-11-16T13:57:08.963Z,13928
2016-11-16T13:58:22.432Z,24512
2016-11-16T13:59:35.466Z,15224
2016-11-16T14:00:47.937Z,24992
2016-11-16T14:02:01.007Z,24608
2016-11-16T14:03:13.447Z,24128
2016-11-16T14:04:26.173Z,24224
2016-11-16T14:05:38.725Z,14364
2016-11-16T14:06:51.766Z,14368
2016-11-16T14:08:04.436Z,25312
2016-11-16T14:09:17.725Z,25568
2016-11-16T14:10:30.463Z,24576
2016-11-16T14:11:43.990Z,17108
2016-11-16T14:12:56.957Z,16804
2016-11-16T14:14:09.993Z,22272
2016-11-16T14:15:23.844Z,28064
2016-11-16T14:16:36.455Z,28864
2016-11-16T14:17:48.965Z,28096
2016-11-16T14:19:00.883Z,27296
2016-11-16T14:20:13.917Z,26720
2016-11-16T14:21:27.396Z,26624
2016-11-16T14:22:40.449Z,26176
2016-11-16T14:23:52.903Z,25984
2016-11-16T14:25:04.923Z,27328
2016-11-16T14:26:16.995Z,19136
2016-11-16T14:27:29.475Z,26496
2016-11-16T14:28:42.491Z,28064
2016-11-16T14:29:55.478Z,20224
2016-11-16T14:31:08.634Z,19136
2016-11-16T14:32:21.602Z,19072
2016-11-16T14:33:33.496Z,29088
2016-11-16T14:34:46.444Z,21920
2016-11-16T14:35:59.438Z,30496
2016-11-16T14:37:12.081Z,30112
2016-11-16T14:38:24.508Z,29152
2016-11-16T14:39:37.502Z,28256
2016-11-16T14:40:50.629Z,28160
2016-11-16T14:42:05.189Z,29312
2016-11-16T14:43:19.478Z,30784
2016-11-16T14:44:32.482Z,30784
2016-11-16T14:45:45.502Z,29280
2016-11-16T14:46:57.927Z,29344
2016-11-16T14:48:11.117Z,30112
2016-11-16T14:49:23.175Z,30304
2016-11-16T14:50:36.653Z,31296
2016-11-16T14:51:50.167Z,32480
2016-11-16T14:53:03.106Z,33664
2016-11-16T14:54:16.606Z,34880
2016-11-16T14:55:29.604Z,34208
2016-11-16T14:56:41.694Z,26720
2016-11-16T14:57:54.352Z,37536
2016-11-16T14:59:07.436Z,38592
2016-11-16T15:00:19.392Z,39616
2016-11-16T15:01:30.811Z,36480
2016-11-16T15:02:44.359Z,24320
2016-11-16T15:03:57.450Z,23296
2016-11-16T15:05:10.394Z,40320
2016-11-16T15:06:23.388Z,40192
2016-11-16T15:07:36.367Z,39776
2016-11-16T15:08:49.850Z,39200
2016-11-16T15:10:03.532Z,40832
2016-11-16T15:11:17.056Z,41696
2016-11-16T15:12:29.036Z,41824
2016-11-16T15:13:42.526Z,41664
2016-11-16T15:14:54.988Z,41408
2016-11-16T15:16:07.597Z,41120
2016-11-16T15:17:21.169Z,41888
2016-11-16T15:18:34.075Z,41952
2016-11-16T15:19:46.546Z,43040
2016-11-16T15:20:59.593Z,45152
2016-11-16T15:22:12.020Z,21568
2016-11-16T15:23:25.529Z,43712
2016-11-16T15:24:37.978Z,45216
2016-11-16T15:25:50.450Z,45440
2016-11-16T15:27:03.010Z,21536
2016-11-16T15:28:46.547Z,19616
2016-11-16T15:29:58.983Z,18720
2016-11-16T15:31:12.102Z,43648
2016-11-16T15:32:25.057Z,44576
2016-11-16T15:33:38.053Z,44128
2016-11-16T15:34:50.567Z,43584
2016-11-16T15:36:03.069Z,43296
2016-11-16T15:37:16.013Z,46624
2016-11-16T15:38:29.059Z,47392
2016-11-16T15:39:42.003Z,48064
2016-11-16T15:40:54.925Z,50848
2016-11-16T15:42:08.599Z,25024
2016-11-16T15:43:22.131Z,24384
2016-11-16T15:44:34.605Z,53088
2016-11-16T15:45:48.090Z,52704
2016-11-16T15:47:00.610Z,53504
2016-11-16T15:48:12.671Z,31936
2016-11-16T15:49:25.685Z,53088
2016-11-16T15:50:38.692Z,28096
2016-11-16T15:51:51.246Z,27968
2016-11-16T15:53:04.371Z,31168
2016-11-16T15:54:15.783Z,23200
2016-11-16T15:55:27.708Z,24416
2016-11-16T15:56:40.731Z,27072
2016-11-16T15:57:53.643Z,54944
2016-11-16T15:59:06.289Z,57984
2016-11-16T16:00:19.846Z,29248
2016-11-16T16:01:32.902Z,51968
2016-11-16T16:02:45.423Z,53152
2016-11-16T16:03:57.712Z,24224
2016-11-16T16:05:10.433Z,24256
2016-11-16T16:06:23.437Z,57152
2016-11-16T16:07:36.427Z,52992
2016-11-16T16:08:49.928Z,19904
2016-11-16T16:10:02.343Z,22208
2016-11-16T16:11:46.474Z,19360
2016-11-16T16:12:59.453Z,20512
2016-11-16T16:14:12.081Z,32448
2016-11-16T16:15:25.100Z,28960
2016-11-16T16:16:38.088Z,48224
2016-11-16T16:17:51.090Z,47616
2016-11-16T16:19:04.681Z,45216
2016-11-16T16:20:17.361Z,31680
2016-11-16T16:21:30.897Z,20544
2016-11-16T16:22:44.054Z,21856
2016-11-16T16:23:57.001Z,27040
2016-11-16T16:25:41.353Z,23520
2016-11-16T16:26:53.846Z,44768
2016-11-16T16:28:05.776Z,24128
2016-11-16T16:29:18.841Z,46560
2016-11-16T16:30:32.950Z,24832
2016-11-16T16:31:46.490Z,42112
2016-11-16T16:32:59.487Z,51808
2016-11-16T16:34:12.007Z,49376
2016-11-16T16:35:25.510Z,24640
2016-11-16T16:36:39.067Z,21664
2016-11-16T16:37:52.053Z,49792
2016-11-16T16:39:05.604Z,25792
2016-11-16T16:40:18.097Z,61120
2016-11-16T16:41:30.727Z,24064
2016-11-16T16:42:43.671Z,58720
2016-11-16T16:43:57.303Z,20448
2016-11-16T16:45:09.794Z,21824
2016-11-16T16:46:22.287Z,33920
2016-11-16T16:47:34.711Z,44960
2016-11-16T16:48:47.833Z,69632
2016-11-16T16:50:01.093Z,67616
2016-11-16T16:51:13.707Z,67264
2016-11-16T16:52:27.209Z,61472
2016-11-16T16:53:40.271Z,25632
2016-11-16T16:54:52.768Z,72704
2016-11-16T16:56:05.274Z,24096
2016-11-16T16:57:17.157Z,60768
2016-11-16T16:58:30.201Z,79264
2016-11-16T16:59:43.753Z,24928
2016-11-16T17:00:56.205Z,26208
2016-11-16T17:02:09.666Z,78080
2016-11-16T17:03:22.515Z,29536
2016-11-16T17:04:36.056Z,81856
2016-11-16T17:05:49.659Z,26432
2016-11-16T17:07:02.768Z,81632
2016-11-16T17:08:15.872Z,82208
2016-11-16T17:09:28.374Z,24640
2016-11-16T17:10:41.474Z,30656
2016-11-16T17:11:54.029Z,79296
2016-11-16T17:13:07.641Z,81344
2016-11-16T17:14:20.577Z,83744
2016-11-16T17:15:33.037Z,84864
2016-11-16T17:16:46.028Z,89664
2016-11-16T17:17:58.496Z,87776
2016-11-16T17:20:54.693Z,25184
2016-11-16T17:22:07.768Z,24992
2016-11-16T17:23:20.715Z,39360
2016-11-16T17:24:33.757Z,69344
2016-11-16T17:26:18.102Z,82464
2016-11-16T17:27:30.646Z,25056
2016-11-16T17:28:44.271Z,24320
2016-11-16T17:29:56.856Z,22528
2016-11-16T17:31:10.367Z,21440
2016-11-16T17:32:23.300Z,20832
2016-11-16T17:33:37.643Z,18880
2016-11-16T17:34:51.129Z,16752
2016-11-16T17:36:06.058Z,15780
2016-11-16T17:37:18.640Z,15412
2016-11-16T17:38:31.656Z,15344
2016-11-16T17:39:44.142Z,15496
2016-11-16T17:40:57.935Z,15728
2016-11-16T17:42:10.905Z,16004
2016-11-16T17:43:24.077Z,16664
2016-11-16T17:44:37.540Z,18432
2016-11-16T17:45:50.976Z,20352
2016-11-16T17:47:04.326Z,21664
2016-11-16T17:48:17.035Z,22496
2016-11-16T17:49:29.513Z,24480
2016-11-16T17:50:41.552Z,31488
2016-11-16T17:51:53.790Z,42560
2016-11-16T17:53:06.790Z,27584
2016-11-16T17:54:19.777Z,28672
2016-11-16T17:55:32.778Z,55232
2016-11-16T17:56:45.211Z,88992
2016-11-16T17:57:58.832Z,103360
2016-11-16T17:59:11.449Z,102368
2016-11-16T18:00:23.352Z,107712
2016-11-16T18:01:35.896Z,102272
2016-11-16T18:02:49.484Z,102656
2016-11-16T18:04:02.430Z,100320
2016-11-16T18:05:15.487Z,100928
2016-11-16T18:06:27.833Z,98944
2016-11-16T18:07:41.356Z,93120
2016-11-16T18:08:53.847Z,100864
2016-11-16T18:10:07.327Z,104064
2016-11-16T18:11:20.326Z,106048
2016-11-16T18:12:33.402Z,78944
2016-11-16T18:13:46.474Z,100960
2016-11-16T18:14:58.957Z,102752
2016-11-16T18:16:12.085Z,97728
2016-11-16T18:17:25.148Z,81792
2016-11-16T18:18:38.818Z,102240
2016-11-16T18:19:51.728Z,88416
2016-11-16T18:21:03.656Z,108288
2016-11-16T18:22:16.749Z,99520
2016-11-16T18:23:29.778Z,81504
2016-11-16T18:24:42.401Z,97088
2016-11-16T18:25:55.392Z,42336
2016-11-16T18:27:08.379Z,29792
2016-11-16T18:28:21.359Z,19200
2016-11-16T18:29:34.327Z,15932
2016-11-16T18:30:47.317Z,13708
2016-11-16T18:31:59.223Z,11476
2016-11-16T18:33:12.199Z,9828
2016-11-16T18:34:25.161Z,8564
2016-11-16T18:35:38.237Z,7400
2016-11-16T18:36:51.785Z,6668
2016-11-16T18:38:04.240Z,6172
2016-11-16T18:39:17.275Z,5720
2016-11-16T18:40:29.261Z,5476
2016-11-16T18:41:42.249Z,5384
2016-11-16T18:42:55.753Z,5216
2016-11-16T18:44:09.215Z,4988
2016-11-16T18:45:22.187Z,4668
2016-11-16T18:46:34.791Z,4472
2016-11-16T18:47:47.839Z,4404
2016-11-16T18:49:00.818Z,4280
2016-11-16T18:50:14.581Z,4180
2016-11-16T18:51:28.362Z,4112
2016-11-16T18:52:41.827Z,3976
2016-11-16T18:53:54.283Z,3868
2016-11-16T18:55:06.721Z,3832
2016-11-16T18:56:19.267Z,3732
2016-11-16T18:57:31.897Z,3624
2016-11-16T18:58:44.855Z,3472
2016-11-16T18:59:57.267Z,3360
2016-11-16T19:01:10.344Z,3240
2016-11-16T19:02:23.347Z,3092
2016-11-16T19:03:36.921Z,2992
2016-11-16T19:04:50.399Z,2876
2016-11-16T19:06:03.882Z,2808
2016-11-16T19:07:17.459Z,2776
2016-11-16T19:08:29.443Z,2808
2016-11-16T19:09:41.879Z,2816
2016-11-16T19:10:54.909Z,2772
2016-11-16T19:12:07.845Z,2692
2016-11-16T19:13:20.298Z,2616
2016-11-16T19:14:33.305Z,2616
2016-11-16T19:15:46.308Z,2632
2016-11-16T19:16:58.766Z,2620
2016-11-16T19:18:12.289Z,2620
2016-11-16T19:19:25.872Z,2620
2016-11-16T19:20:38.878Z,2564
2016-11-16T19:21:51.845Z,2456
2016-11-16T19:23:04.271Z,2300
2016-11-16T19:24:17.243Z,2156
2016-11-16T19:25:30.315Z,1992
2016-11-16T19:26:43.235Z,1772
2016-11-16T19:27:55.648Z,1552
2016-11-16T19:29:08.638Z,1448
2016-11-16T19:30:21.823Z,1372
2016-11-16T19:31:35.351Z,1384
2016-11-16T19:32:48.326Z,1564
2016-11-16T19:34:01.840Z,1436
2016-11-16T19:35:15.529Z,1432
2016-11-16T19:36:28.495Z,1528
2016-11-16T19:37:41.453Z,1708
2016-11-16T19:38:54.979Z,1604
2016-11-16T19:40:07.908Z,1664
2016-11-16T19:41:21.553Z,1648
2016-11-16T19:42:35.074Z,1720
2016-11-16T19:43:48.014Z,1844
2016-11-16T19:45:01.530Z,1904
2016-11-16T19:46:46.206Z,1680
2016-11-16T19:47:58.668Z,1724
2016-11-16T19:49:11.648Z,1748
2016-11-16T19:50:24.593Z,1872
2016-11-16T19:51:37.024Z,2208
2016-11-16T19:52:49.449Z,2660
2016-11-16T19:54:01.942Z,3224
2016-11-16T19:55:14.877Z,3540
2016-11-16T19:56:27.309Z,3324
2016-11-16T19:57:40.910Z,3172
2016-11-16T19:58:53.876Z,2756
2016-11-16T20:00:07.303Z,2496
2016-11-16T20:01:18.712Z,2392
2016-11-16T20:02:32.133Z,2396
2016-11-16T20:03:45.045Z,2264
2016-11-16T20:04:57.482Z,2232
2016-11-16T20:06:10.481Z,2064
2016-11-16T20:07:22.893Z,2016
2016-11-16T20:08:35.395Z,1892
2016-11-16T20:09:48.323Z,1860
2016-11-16T20:11:00.795Z,1484
2016-11-16T20:13:56.891Z,772
2016-11-16T20:15:09.917Z,600
2016-11-16T20:16:21.851Z,540
2016-11-16T20:17:34.819Z,980
2016-11-16T20:18:48.360Z,1600
2016-11-16T20:20:00.829Z,2132
2016-11-16T20:21:12.712Z,2536
2016-11-16T20:22:25.689Z,2680
2016-11-16T20:23:38.661Z,2632
2016-11-16T20:24:52.417Z,2500
2016-11-16T20:26:04.813Z,2624
2016-11-16T20:27:17.856Z,2720
2016-11-16T20:28:31.432Z,2956
2016-11-16T20:29:44.506Z,3140
2016-11-16T20:30:57.509Z,3336
2016-11-16T20:32:10.482Z,3376
2016-11-16T20:33:23.966Z,3412
2016-11-16T20:34:37.443Z,3128
2016-11-16T20:35:50.698Z,2804
2016-11-16T20:37:03.126Z,2484
2016-11-16T20:38:16.097Z,2120
2016-11-16T20:39:29.051Z,1808
2016-11-16T20:40:43.247Z,1572
2016-11-16T20:41:56.698Z,1416
2016-11-16T20:43:09.562Z,1284
2016-11-16T20:44:21.990Z,1172
2016-11-16T20:45:34.960Z,1060
2016-11-16T20:46:47.573Z,948
2016-11-16T20:48:00.062Z,840
2016-11-16T20:49:13.067Z,724
2016-11-16T20:50:26.577Z,624
2016-11-16T20:51:40.327Z,548
2016-11-16T20:52:53.353Z,476
2016-11-16T20:54:05.750Z,408
2016-11-16T20:55:19.254Z,344
2016-11-16T20:56:32.164Z,300
2016-11-16T20:57:44.709Z,256
2016-11-16T20:58:58.212Z,244
2016-11-16T21:00:10.648Z,252
2016-11-16T21:01:23.627Z,276
2016-11-16T21:03:07.895Z,356
2016-11-16T21:04:21.378Z,432
2016-11-16T21:05:33.821Z,500
2016-11-16T21:06:47.300Z,540
2016-11-16T21:08:00.829Z,524
2016-11-16T21:09:13.933Z,452
2016-11-16T21:10:26.870Z,368
2016-11-16T21:11:39.278Z,300
2016-11-16T21:12:51.720Z,256
2016-11-16T21:14:04.141Z,228
2016-11-16T21:15:16.082Z,208
2016-11-16T21:16:28.476Z,180
2016-11-16T21:17:41.977Z,152
2016-11-16T21:18:55.444Z,132
2016-11-16T21:20:09.093Z,120
2016-11-16T21:21:22.034Z,108
2016-11-16T21:22:35.037Z,104
2016-11-16T21:23:48.085Z,104
2016-11-16T21:25:01.173Z,100
2016-11-16T21:26:13.632Z,92
2016-11-16T21:27:26.594Z,84
2016-11-16T21:28:39.612Z,72
2016-11-16T21:29:52.044Z,64
2016-11-16T21:31:05.661Z,56
2016-11-16T21:32:18.588Z,48
2016-11-16T21:33:30.973Z,40
2016-11-16T21:34:44.379Z,36
2016-11-16T21:35:57.912Z,36
2016-11-16T21:37:09.768Z,28
2016-11-16T21:38:22.257Z,24
2016-11-16T21:40:06.846Z,20
2016-11-16T21:41:19.877Z,16
2016-11-16T21:42:32.331Z,12
2016-11-16T21:43:45.238Z,8
2016-11-16T21:44:58.206Z,8
2016-11-16T21:46:11.700Z,4
2016-11-16T21:47:24.622Z,4
2016-11-16T21:48:38.129Z,4
2016-11-16T21:49:50.566Z,0
2016-11-16T21:51:03.522Z,4
2016-11-16T21:52:16.092Z,0
2016-11-16T21:53:59.659Z,0
2016-11-16T21:55:12.617Z,0
2016-11-16T21:56:25.021Z,0
2016-11-16T21:57:37.615Z,0
2016-11-16T21:58:50.577Z,0
2016-11-16T22:00:03.494Z,0
2016-11-16T22:01:16.470Z,0
2016-11-16T22:02:29.552Z,0
2016-11-16T22:03:43.085Z,0
2016-11-16T22:04:56.047Z,0
2016-11-16T22:06:09.047Z,0
2016-11-16T22:07:22.537Z,0
2016-11-16T22:08:36.157Z,0
2016-11-16T22:09:49.114Z,0
2016-11-16T22:11:02.027Z,0
2016-11-16T22:12:15.542Z,0
2016-11-16T22:13:27.401Z,0
2016-11-16T22:14:40.894Z,0
2016-11-16T22:15:53.901Z,0
2016-11-16T22:17:07.525Z,0
2016-11-16T22:18:19.960Z,0
2016-11-16T22:19:32.556Z,0
2016-11-16T22:20:45.580Z,0
2016-11-16T22:21:59.057Z,0
2016-11-16T22:23:11.998Z,0
2016-11-16T22:24:25.053Z,0
2016-11-16T22:25:38.029Z,0
2016-11-16T22:26:50.974Z,0
2016-11-16T22:28:04.459Z,0
2016-11-16T22:29:16.885Z,0
2016-11-16T22:30:29.930Z,0
2016-11-16T22:31:43.456Z,0
2016-11-16T22:32:55.809Z,0
2016-11-16T22:34:08.787Z,0
2016-11-16T22:35:21.249Z,0
2016-11-16T22:36:33.679Z,0
2016-11-16T22:37:46.121Z,0
2016-11-16T22:38:58.564Z,0
2016-11-16T22:40:11.006Z,0
2016-11-16T22:41:24.202Z,0
2016-11-16T22:42:37.718Z,0
2016-11-16T22:43:50.650Z,0
2016-11-16T22:45:04.175Z,0
2016-11-16T22:46:17.313Z,0
2016-11-16T22:47:30.785Z,0
2016-11-16T22:48:43.799Z,0
2016-11-16T22:49:57.218Z,0
2016-11-16T22:51:09.724Z,0
2016-11-16T22:52:22.832Z,0
2016-11-16T22:53:35.802Z,0
2016-11-16T22:54:48.334Z,0
2016-11-16T22:56:01.850Z,0
2016-11-16T22:57:14.375Z,0
2016-11-16T22:58:27.453Z,0
2016-11-16T22:59:40.934Z,0
2016-11-16T23:00:54.483Z,0
2016-11-16T23:02:06.393Z,0
2016-11-16T23:03:20.094Z,0
2016-11-16T23:04:32.597Z,0
2016-11-16T23:05:46.104Z,0
2016-11-16T23:07:30.228Z,0
2016-11-16T23:08:41.816Z,0
2016-11-16T23:09:54.806Z,0
2016-11-16T23:11:07.827Z,0
2016-11-16T23:12:21.323Z,0
2016-11-16T23:13:34.303Z,0
2016-11-16T23:14:47.300Z,0
2016-11-16T23:15:59.197Z,0
2016-11-16T23:17:10.549Z,0
2016-11-16T23:18:24.023Z,0
2016-11-16T23:19:37.254Z,0
2016-11-16T23:20:48.574Z,0
2016-11-16T23:22:01.491Z,0
2016-11-16T23:23:15.019Z,0
2016-11-16T23:24:28.519Z,0
2016-11-16T23:25:42.066Z,0
2016-11-16T23:26:54.574Z,0
2016-11-16T23:28:08.053Z,0
2016-11-16T23:29:20.543Z,0
2016-11-16T23:30:34.121Z,0
2016-11-16T23:31:47.590Z,0
2016-11-16T23:33:00.031Z,0
2016-11-16T23:34:12.582Z,0
2016-11-16T23:35:26.206Z,0
2016-11-16T23:36:38.062Z,0
2016-11-16T23:37:51.101Z,0
2016-11-16T23:39:04.541Z,0
2016-11-16T23:40:49.267Z,0
2016-11-16T23:42:02.764Z,0
2016-11-16T23:43:15.781Z,0
2016-11-16T23:44:29.244Z,0
2016-11-16T23:45:42.821Z,0
2016-11-16T23:46:56.395Z,0
2016-11-16T23:48:09.881Z,0
2016-11-16T23:49:22.778Z,0
2016-11-16T23:50:36.271Z,0
2016-11-16T23:51:49.809Z,0
2016-11-16T23:53:02.875Z,0
2016-11-16T23:54:16.371Z,0
2016-11-16T23:55:28.826Z,0
2016-11-16T23:56:41.327Z,0
2016-11-16T23:57:54.313Z,0
2016-11-16T23:59:06.760Z,0
